sensor_id;sensor_type;location;lat;lon;timestamp;temperature;humidity
11764;DHT22;5939;56.522;14.950;2023-12-20T00:00:52;5.20;99.90
11764;DHT22;5939;56.522;14.950;2023-12-20T00:03:17;5.20;99.90
11764;DHT22;5939;56.522;14.950;2023-12-20T00:05:43;5.20;99.90
11764;DHT22;5939;56.522;14.950;2023-12-20T00:08:09;5.20;99.90
11764;DHT22;5939;56.522;14.950;2023-12-20T00:10:35;5.20;99.90
11764;DHT22;5939;56.522;14.950;2023-12-20T00:13:00;5.10;99.90
11764;DHT22;5939;56.522;14.950;2023-12-20T00:15:26;5.10;99.90
11764;DHT22;5939;56.522;14.950;2023-12-20T00:17:52;5.10;99.90
11764;DHT22;5939;56.522;14.950;2023-12-20T00:20:17;5.10;99.90
11764;DHT22;5939;56.522;14.950;2023-12-20T00:22:43;5.10;99.90
11764;DHT22;5939;56.522;14.950;2023-12-20T00:25:08;5.10;99.90
11764;DHT22;5939;56.522;14.950;2023-12-20T00:27:34;5.10;99.90
11764;DHT22;5939;56.522;14.950;2023-12-20T00:30:00;5.10;99.90
11764;DHT22;5939;56.522;14.950;2023-12-20T00:32:25;5.00;99.90
11764;DHT22;5939;56.522;14.950;2023-12-20T00:34:51;5.00;99.90
11764;DHT22;5939;56.522;14.950;2023-12-20T00:37:17;5.00;99.90
11764;DHT22;5939;56.522;14.950;2023-12-20T00:39:42;5.00;99.90
11764;DHT22;5939;56.522;14.950;2023-12-20T00:42:08;5.00;99.90
11764;DHT22;5939;56.522;14.950;2023-12-20T00:44:33;5.00;99.90
11764;DHT22;5939;56.522;14.950;2023-12-20T00:46:59;5.00;99.90
11764;DHT22;5939;56.522;14.950;2023-12-20T00:49:25;5.00;99.90
11764;DHT22;5939;56.522;14.950;2023-12-20T00:51:50;5.00;99.90
11764;DHT22;5939;56.522;14.950;2023-12-20T00:54:18;5.00;99.90
11764;DHT22;5939;56.522;14.950;2023-12-20T00:56:43;4.90;99.90
11764;DHT22;5939;56.522;14.950;2023-12-20T00:59:09;4.90;99.90
11764;DHT22;5939;56.522;14.950;2023-12-20T01:01:35;4.90;99.90
11764;DHT22;5939;56.522;14.950;2023-12-20T01:04:00;4.90;99.90
11764;DHT22;5939;56.522;14.950;2023-12-20T01:06:26;4.90;99.90
11764;DHT22;5939;56.522;14.950;2023-12-20T01:08:52;4.90;99.90
11764;DHT22;5939;56.522;14.950;2023-12-20T01:11:17;4.90;99.90
11764;DHT22;5939;56.522;14.950;2023-12-20T01:13:43;4.90;99.90
11764;DHT22;5939;56.522;14.950;2023-12-20T01:16:12;4.80;99.90
11764;DHT22;5939;56.522;14.950;2023-12-20T01:18:38;4.90;99.90
11764;DHT22;5939;56.522;14.950;2023-12-20T01:21:04;4.90;99.90
11764;DHT22;5939;56.522;14.950;2023-12-20T01:23:31;4.90;99.90
11764;DHT22;5939;56.522;14.950;2023-12-20T01:25:57;4.80;99.90
11764;DHT22;5939;56.522;14.950;2023-12-20T01:28:25;4.80;99.90
11764;DHT22;5939;56.522;14.950;2023-12-20T01:30:51;4.80;99.90
11764;DHT22;5939;56.522;14.950;2023-12-20T01:33:16;4.80;99.90
11764;DHT22;5939;56.522;14.950;2023-12-20T01:35:42;4.80;99.90
11764;DHT22;5939;56.522;14.950;2023-12-20T01:38:08;4.80;99.90
11764;DHT22;5939;56.522;14.950;2023-12-20T01:40:34;4.80;99.90
11764;DHT22;5939;56.522;14.950;2023-12-20T01:43:07;4.80;99.90
11764;DHT22;5939;56.522;14.950;2023-12-20T01:45:34;4.80;99.90
11764;DHT22;5939;56.522;14.950;2023-12-20T01:48:00;4.80;99.90
11764;DHT22;5939;56.522;14.950;2023-12-20T01:50:28;4.80;99.90
11764;DHT22;5939;56.522;14.950;2023-12-20T01:52:55;4.80;99.90
11764;DHT22;5939;56.522;14.950;2023-12-20T01:55:25;4.80;99.90
11764;DHT22;5939;56.522;14.950;2023-12-20T01:57:51;4.80;99.90
11764;DHT22;5939;56.522;14.950;2023-12-20T02:00:18;4.80;99.90
11764;DHT22;5939;56.522;14.950;2023-12-20T02:02:44;4.80;99.90
11764;DHT22;5939;56.522;14.950;2023-12-20T02:05:11;4.80;99.90
11764;DHT22;5939;56.522;14.950;2023-12-20T02:07:37;4.80;99.90
11764;DHT22;5939;56.522;14.950;2023-12-20T02:10:03;4.80;99.90
11764;DHT22;5939;56.522;14.950;2023-12-20T02:12:32;4.80;99.90
11764;DHT22;5939;56.522;14.950;2023-12-20T02:14:57;4.80;99.90
11764;DHT22;5939;56.522;14.950;2023-12-20T02:17:23;4.70;99.90
11764;DHT22;5939;56.522;14.950;2023-12-20T02:19:49;4.70;99.90
11764;DHT22;5939;56.522;14.950;2023-12-20T02:22:15;4.70;99.90
11764;DHT22;5939;56.522;14.950;2023-12-20T02:24:41;4.70;99.90
11764;DHT22;5939;56.522;14.950;2023-12-20T02:27:07;4.70;99.90
11764;DHT22;5939;56.522;14.950;2023-12-20T02:29:34;4.70;99.90
11764;DHT22;5939;56.522;14.950;2023-12-20T02:32:00;4.70;99.90
11764;DHT22;5939;56.522;14.950;2023-12-20T02:34:25;4.70;99.90
11764;DHT22;5939;56.522;14.950;2023-12-20T02:36:51;4.70;99.90
11764;DHT22;5939;56.522;14.950;2023-12-20T02:39:17;4.70;99.90
11764;DHT22;5939;56.522;14.950;2023-12-20T02:41:43;4.70;99.90
11764;DHT22;5939;56.522;14.950;2023-12-20T02:44:09;4.70;99.90
11764;DHT22;5939;56.522;14.950;2023-12-20T02:46:35;4.70;99.90
11764;DHT22;5939;56.522;14.950;2023-12-20T02:49:00;4.70;99.90
11764;DHT22;5939;56.522;14.950;2023-12-20T02:51:26;4.70;99.90
11764;DHT22;5939;56.522;14.950;2023-12-20T02:53:51;4.80;99.90
11764;DHT22;5939;56.522;14.950;2023-12-20T02:56:17;4.70;99.90
11764;DHT22;5939;56.522;14.950;2023-12-20T02:58:43;4.70;99.90
11764;DHT22;5939;56.522;14.950;2023-12-20T03:01:08;4.70;99.90
11764;DHT22;5939;56.522;14.950;2023-12-20T03:03:34;4.80;99.90
11764;DHT22;5939;56.522;14.950;2023-12-20T03:06:00;4.70;99.90
11764;DHT22;5939;56.522;14.950;2023-12-20T03:08:25;4.80;99.90
11764;DHT22;5939;56.522;14.950;2023-12-20T03:10:51;4.70;99.90
11764;DHT22;5939;56.522;14.950;2023-12-20T03:13:17;4.70;99.90
11764;DHT22;5939;56.522;14.950;2023-12-20T03:15:42;4.70;99.90
11764;DHT22;5939;56.522;14.950;2023-12-20T03:18:08;4.80;99.90
11764;DHT22;5939;56.522;14.950;2023-12-20T03:20:34;4.80;99.90
11764;DHT22;5939;56.522;14.950;2023-12-20T03:23:02;4.70;99.90
11764;DHT22;5939;56.522;14.950;2023-12-20T03:25:28;4.80;99.90
11764;DHT22;5939;56.522;14.950;2023-12-20T03:27:54;4.80;99.90
11764;DHT22;5939;56.522;14.950;2023-12-20T03:30:20;4.70;99.90
11764;DHT22;5939;56.522;14.950;2023-12-20T03:32:46;4.80;99.90
11764;DHT22;5939;56.522;14.950;2023-12-20T03:35:12;4.70;99.90
11764;DHT22;5939;56.522;14.950;2023-12-20T03:37:37;4.80;99.90
11764;DHT22;5939;56.522;14.950;2023-12-20T03:40:03;4.80;99.90
11764;DHT22;5939;56.522;14.950;2023-12-20T03:42:29;4.70;99.90
11764;DHT22;5939;56.522;14.950;2023-12-20T03:44:55;4.80;99.90
11764;DHT22;5939;56.522;14.950;2023-12-20T03:47:20;4.80;99.90
11764;DHT22;5939;56.522;14.950;2023-12-20T03:49:46;4.80;99.90
11764;DHT22;5939;56.522;14.950;2023-12-20T03:52:12;4.80;99.90
11764;DHT22;5939;56.522;14.950;2023-12-20T03:54:38;4.80;99.90
11764;DHT22;5939;56.522;14.950;2023-12-20T03:57:04;4.80;99.90
11764;DHT22;5939;56.522;14.950;2023-12-20T03:59:30;4.80;99.90
11764;DHT22;5939;56.522;14.950;2023-12-20T04:01:55;4.80;99.90
11764;DHT22;5939;56.522;14.950;2023-12-20T04:04:21;4.80;99.90
11764;DHT22;5939;56.522;14.950;2023-12-20T04:06:46;4.80;99.90
11764;DHT22;5939;56.522;14.950;2023-12-20T04:09:12;4.80;99.90
11764;DHT22;5939;56.522;14.950;2023-12-20T04:11:38;4.80;99.90
11764;DHT22;5939;56.522;14.950;2023-12-20T04:14:04;4.80;99.90
11764;DHT22;5939;56.522;14.950;2023-12-20T04:16:32;4.80;99.90
11764;DHT22;5939;56.522;14.950;2023-12-20T04:18:58;4.80;99.90
11764;DHT22;5939;56.522;14.950;2023-12-20T04:21:24;4.80;99.90
11764;DHT22;5939;56.522;14.950;2023-12-20T04:23:50;4.80;99.90
11764;DHT22;5939;56.522;14.950;2023-12-20T04:26:15;4.80;99.90
11764;DHT22;5939;56.522;14.950;2023-12-20T04:28:41;4.80;99.90
11764;DHT22;5939;56.522;14.950;2023-12-20T04:31:07;4.80;99.90
11764;DHT22;5939;56.522;14.950;2023-12-20T04:33:33;4.80;99.90
11764;DHT22;5939;56.522;14.950;2023-12-20T04:35:58;4.80;99.90
11764;DHT22;5939;56.522;14.950;2023-12-20T04:38:25;4.80;99.90
11764;DHT22;5939;56.522;14.950;2023-12-20T04:40:51;4.80;99.90
11764;DHT22;5939;56.522;14.950;2023-12-20T04:43:17;4.80;99.90
11764;DHT22;5939;56.522;14.950;2023-12-20T04:45:42;4.80;99.90
11764;DHT22;5939;56.522;14.950;2023-12-20T04:48:08;4.80;99.90
11764;DHT22;5939;56.522;14.950;2023-12-20T04:50:34;4.80;99.90
11764;DHT22;5939;56.522;14.950;2023-12-20T04:53:00;4.80;99.90
11764;DHT22;5939;56.522;14.950;2023-12-20T04:55:25;4.80;99.90
11764;DHT22;5939;56.522;14.950;2023-12-20T04:57:51;4.80;99.90
11764;DHT22;5939;56.522;14.950;2023-12-20T05:00:17;4.90;99.90
11764;DHT22;5939;56.522;14.950;2023-12-20T05:02:43;4.80;99.90
11764;DHT22;5939;56.522;14.950;2023-12-20T05:05:08;4.80;99.90
11764;DHT22;5939;56.522;14.950;2023-12-20T05:07:34;4.90;99.90
11764;DHT22;5939;56.522;14.950;2023-12-20T05:10:00;4.90;99.90
11764;DHT22;5939;56.522;14.950;2023-12-20T05:12:26;4.90;99.90
11764;DHT22;5939;56.522;14.950;2023-12-20T05:14:52;4.80;99.90
11764;DHT22;5939;56.522;14.950;2023-12-20T05:17:18;4.90;99.90
11764;DHT22;5939;56.522;14.950;2023-12-20T05:19:53;4.90;99.90
11764;DHT22;5939;56.522;14.950;2023-12-20T05:22:19;4.90;99.90
11764;DHT22;5939;56.522;14.950;2023-12-20T05:24:45;4.90;99.90
11764;DHT22;5939;56.522;14.950;2023-12-20T05:27:11;4.90;99.90
11764;DHT22;5939;56.522;14.950;2023-12-20T05:29:37;4.90;99.90
11764;DHT22;5939;56.522;14.950;2023-12-20T05:32:04;4.90;99.90
11764;DHT22;5939;56.522;14.950;2023-12-20T05:34:30;4.90;99.90
11764;DHT22;5939;56.522;14.950;2023-12-20T05:36:57;4.90;99.90
11764;DHT22;5939;56.522;14.950;2023-12-20T05:39:22;4.90;99.90
11764;DHT22;5939;56.522;14.950;2023-12-20T05:41:48;4.90;99.90
11764;DHT22;5939;56.522;14.950;2023-12-20T05:44:14;4.90;99.90
11764;DHT22;5939;56.522;14.950;2023-12-20T05:46:39;4.90;99.90
11764;DHT22;5939;56.522;14.950;2023-12-20T05:49:06;4.90;99.90
11764;DHT22;5939;56.522;14.950;2023-12-20T05:51:31;4.90;99.90
11764;DHT22;5939;56.522;14.950;2023-12-20T05:53:58;4.90;99.90
11764;DHT22;5939;56.522;14.950;2023-12-20T05:56:24;4.90;99.90
11764;DHT22;5939;56.522;14.950;2023-12-20T05:58:49;4.90;99.90
11764;DHT22;5939;56.522;14.950;2023-12-20T06:01:15;4.90;99.90
11764;DHT22;5939;56.522;14.950;2023-12-20T06:03:43;4.90;99.90
11764;DHT22;5939;56.522;14.950;2023-12-20T06:06:09;4.90;99.90
11764;DHT22;5939;56.522;14.950;2023-12-20T06:08:36;4.90;99.90
11764;DHT22;5939;56.522;14.950;2023-12-20T06:11:01;4.90;99.90
11764;DHT22;5939;56.522;14.950;2023-12-20T06:13:28;4.90;99.90
11764;DHT22;5939;56.522;14.950;2023-12-20T06:15:54;4.90;99.90
11764;DHT22;5939;56.522;14.950;2023-12-20T06:18:21;4.90;99.90
11764;DHT22;5939;56.522;14.950;2023-12-20T06:20:46;4.90;99.90
11764;DHT22;5939;56.522;14.950;2023-12-20T06:23:12;4.90;99.90
11764;DHT22;5939;56.522;14.950;2023-12-20T06:25:37;4.90;99.90
11764;DHT22;5939;56.522;14.950;2023-12-20T06:28:03;4.90;99.90
11764;DHT22;5939;56.522;14.950;2023-12-20T06:30:29;4.90;99.90
11764;DHT22;5939;56.522;14.950;2023-12-20T06:32:55;4.90;99.90
11764;DHT22;5939;56.522;14.950;2023-12-20T06:35:23;4.90;99.90
11764;DHT22;5939;56.522;14.950;2023-12-20T06:37:48;4.90;99.90
11764;DHT22;5939;56.522;14.950;2023-12-20T06:40:14;4.90;99.90
11764;DHT22;5939;56.522;14.950;2023-12-20T06:42:39;4.90;99.90
11764;DHT22;5939;56.522;14.950;2023-12-20T06:45:05;4.90;99.90
11764;DHT22;5939;56.522;14.950;2023-12-20T06:47:31;4.90;99.90
11764;DHT22;5939;56.522;14.950;2023-12-20T06:49:57;4.90;99.90
11764;DHT22;5939;56.522;14.950;2023-12-20T06:52:22;4.90;99.90
11764;DHT22;5939;56.522;14.950;2023-12-20T06:54:48;4.90;99.90
11764;DHT22;5939;56.522;14.950;2023-12-20T06:57:13;5.00;99.90
11764;DHT22;5939;56.522;14.950;2023-12-20T06:59:42;5.00;99.90
11764;DHT22;5939;56.522;14.950;2023-12-20T07:02:09;5.00;99.90
11764;DHT22;5939;56.522;14.950;2023-12-20T07:04:39;5.00;99.90
11764;DHT22;5939;56.522;14.950;2023-12-20T07:07:05;4.90;99.90
11764;DHT22;5939;56.522;14.950;2023-12-20T07:09:31;5.00;99.90
11764;DHT22;5939;56.522;14.950;2023-12-20T07:11:56;5.00;99.90
11764;DHT22;5939;56.522;14.950;2023-12-20T07:14:22;5.00;99.90
11764;DHT22;5939;56.522;14.950;2023-12-20T07:16:47;5.00;99.90
11764;DHT22;5939;56.522;14.950;2023-12-20T07:19:13;5.00;99.90
11764;DHT22;5939;56.522;14.950;2023-12-20T07:21:39;5.00;99.90
11764;DHT22;5939;56.522;14.950;2023-12-20T07:24:05;5.00;99.90
11764;DHT22;5939;56.522;14.950;2023-12-20T07:26:30;5.00;99.90
11764;DHT22;5939;56.522;14.950;2023-12-20T07:28:56;5.00;99.90
11764;DHT22;5939;56.522;14.950;2023-12-20T07:31:22;5.00;99.90
11764;DHT22;5939;56.522;14.950;2023-12-20T07:33:49;5.00;99.90
11764;DHT22;5939;56.522;14.950;2023-12-20T07:36:15;5.00;99.90
11764;DHT22;5939;56.522;14.950;2023-12-20T07:38:40;5.00;99.90
11764;DHT22;5939;56.522;14.950;2023-12-20T07:41:12;5.00;99.90
11764;DHT22;5939;56.522;14.950;2023-12-20T07:43:38;5.00;99.90
11764;DHT22;5939;56.522;14.950;2023-12-20T07:46:05;5.00;99.90
11764;DHT22;5939;56.522;14.950;2023-12-20T07:48:31;5.00;99.90
11764;DHT22;5939;56.522;14.950;2023-12-20T07:50:57;5.00;99.90
11764;DHT22;5939;56.522;14.950;2023-12-20T07:53:22;5.00;99.90
11764;DHT22;5939;56.522;14.950;2023-12-20T07:55:48;5.00;99.90
11764;DHT22;5939;56.522;14.950;2023-12-20T07:58:14;5.00;99.90
11764;DHT22;5939;56.522;14.950;2023-12-20T08:00:39;5.00;99.90
11764;DHT22;5939;56.522;14.950;2023-12-20T08:03:05;5.00;99.90
11764;DHT22;5939;56.522;14.950;2023-12-20T08:05:30;5.00;99.90
11764;DHT22;5939;56.522;14.950;2023-12-20T08:07:56;5.00;99.90
11764;DHT22;5939;56.522;14.950;2023-12-20T08:10:22;5.00;99.90
11764;DHT22;5939;56.522;14.950;2023-12-20T08:12:47;5.00;99.90
11764;DHT22;5939;56.522;14.950;2023-12-20T08:15:13;5.00;99.90
11764;DHT22;5939;56.522;14.950;2023-12-20T08:17:39;5.10;99.90
11764;DHT22;5939;56.522;14.950;2023-12-20T08:20:06;5.00;99.90
11764;DHT22;5939;56.522;14.950;2023-12-20T08:22:31;5.00;99.90
11764;DHT22;5939;56.522;14.950;2023-12-20T08:24:57;5.00;99.90
11764;DHT22;5939;56.522;14.950;2023-12-20T08:27:23;5.00;99.90
11764;DHT22;5939;56.522;14.950;2023-12-20T08:29:48;5.10;99.90
11764;DHT22;5939;56.522;14.950;2023-12-20T08:32:16;5.00;99.90
11764;DHT22;5939;56.522;14.950;2023-12-20T08:34:41;5.10;99.90
11764;DHT22;5939;56.522;14.950;2023-12-20T08:37:07;5.10;99.90
11764;DHT22;5939;56.522;14.950;2023-12-20T08:39:32;5.10;99.90
11764;DHT22;5939;56.522;14.950;2023-12-20T08:41:59;5.00;99.90
11764;DHT22;5939;56.522;14.950;2023-12-20T08:44:24;5.10;99.90
11764;DHT22;5939;56.522;14.950;2023-12-20T08:46:50;5.10;99.90
11764;DHT22;5939;56.522;14.950;2023-12-20T08:49:16;5.10;99.90
11764;DHT22;5939;56.522;14.950;2023-12-20T08:51:41;5.10;99.90
11764;DHT22;5939;56.522;14.950;2023-12-20T08:54:07;5.10;99.90
11764;DHT22;5939;56.522;14.950;2023-12-20T08:56:34;5.10;99.90
11764;DHT22;5939;56.522;14.950;2023-12-20T08:58:59;5.10;99.90
11764;DHT22;5939;56.522;14.950;2023-12-20T09:01:25;5.10;99.90
11764;DHT22;5939;56.522;14.950;2023-12-20T09:03:50;5.10;99.90
11764;DHT22;5939;56.522;14.950;2023-12-20T09:06:16;5.10;99.90
11764;DHT22;5939;56.522;14.950;2023-12-20T09:08:42;5.10;99.90
11764;DHT22;5939;56.522;14.950;2023-12-20T09:11:07;5.10;99.90
11764;DHT22;5939;56.522;14.950;2023-12-20T09:13:33;5.10;99.90
11764;DHT22;5939;56.522;14.950;2023-12-20T09:15:59;5.10;99.90
11764;DHT22;5939;56.522;14.950;2023-12-20T09:18:25;5.10;99.90
11764;DHT22;5939;56.522;14.950;2023-12-20T09:20:51;5.10;99.90
11764;DHT22;5939;56.522;14.950;2023-12-20T09:23:17;5.10;99.90
11764;DHT22;5939;56.522;14.950;2023-12-20T09:25:43;5.10;99.90
11764;DHT22;5939;56.522;14.950;2023-12-20T09:28:09;5.10;99.90
11764;DHT22;5939;56.522;14.950;2023-12-20T09:30:35;5.10;99.90
11764;DHT22;5939;56.522;14.950;2023-12-20T09:33:05;5.10;99.90
11764;DHT22;5939;56.522;14.950;2023-12-20T09:35:32;5.10;99.90
11764;DHT22;5939;56.522;14.950;2023-12-20T09:37:58;5.10;99.90
11764;DHT22;5939;56.522;14.950;2023-12-20T09:40:26;5.10;99.90
11764;DHT22;5939;56.522;14.950;2023-12-20T09:43:03;5.10;99.90
11764;DHT22;5939;56.522;14.950;2023-12-20T09:45:31;5.10;99.90
11764;DHT22;5939;56.522;14.950;2023-12-20T09:47:58;5.20;99.90
11764;DHT22;5939;56.522;14.950;2023-12-20T09:50:23;5.10;99.90
11764;DHT22;5939;56.522;14.950;2023-12-20T09:52:53;5.20;99.90
11764;DHT22;5939;56.522;14.950;2023-12-20T09:55:21;5.20;99.90
11764;DHT22;5939;56.522;14.950;2023-12-20T09:57:48;5.20;99.90
11764;DHT22;5939;56.522;14.950;2023-12-20T10:00:14;5.20;99.90
11764;DHT22;5939;56.522;14.950;2023-12-20T10:02:47;5.10;99.90
11764;DHT22;5939;56.522;14.950;2023-12-20T10:05:17;5.20;99.90
11764;DHT22;5939;56.522;14.950;2023-12-20T10:07:46;5.20;99.90
11764;DHT22;5939;56.522;14.950;2023-12-20T10:10:13;5.20;99.90
11764;DHT22;5939;56.522;14.950;2023-12-20T10:12:39;5.20;99.90
11764;DHT22;5939;56.522;14.950;2023-12-20T10:15:05;5.20;99.90
11764;DHT22;5939;56.522;14.950;2023-12-20T10:17:31;5.20;99.90
11764;DHT22;5939;56.522;14.950;2023-12-20T10:19:57;5.20;99.90
11764;DHT22;5939;56.522;14.950;2023-12-20T10:22:24;5.20;99.90
11764;DHT22;5939;56.522;14.950;2023-12-20T10:24:49;5.20;99.90
11764;DHT22;5939;56.522;14.950;2023-12-20T10:27:18;5.20;99.90
11764;DHT22;5939;56.522;14.950;2023-12-20T10:29:45;5.20;99.90
11764;DHT22;5939;56.522;14.950;2023-12-20T10:32:27;5.20;99.90
11764;DHT22;5939;56.522;14.950;2023-12-20T10:34:54;5.20;99.90
11764;DHT22;5939;56.522;14.950;2023-12-20T10:37:20;5.20;99.90
11764;DHT22;5939;56.522;14.950;2023-12-20T10:39:55;5.30;99.90
11764;DHT22;5939;56.522;14.950;2023-12-20T10:42:24;5.30;99.90
11764;DHT22;5939;56.522;14.950;2023-12-20T10:44:51;5.30;99.90
11764;DHT22;5939;56.522;14.950;2023-12-20T10:47:19;5.30;99.90
11764;DHT22;5939;56.522;14.950;2023-12-20T10:49:45;5.30;99.90
11764;DHT22;5939;56.522;14.950;2023-12-20T10:52:12;5.30;99.90
11764;DHT22;5939;56.522;14.950;2023-12-20T10:54:41;5.30;99.90
11764;DHT22;5939;56.522;14.950;2023-12-20T10:57:07;5.30;99.90
11764;DHT22;5939;56.522;14.950;2023-12-20T10:59:34;5.30;99.90
11764;DHT22;5939;56.522;14.950;2023-12-20T11:02:04;5.30;99.90
11764;DHT22;5939;56.522;14.950;2023-12-20T11:04:59;5.30;99.90
11764;DHT22;5939;56.522;14.950;2023-12-20T11:07:42;5.30;99.90
11764;DHT22;5939;56.522;14.950;2023-12-20T11:10:21;5.30;99.90
11764;DHT22;5939;56.522;14.950;2023-12-20T11:12:58;5.30;99.90
11764;DHT22;5939;56.522;14.950;2023-12-20T11:15:26;5.30;99.90
11764;DHT22;5939;56.522;14.950;2023-12-20T11:17:55;5.30;99.90
11764;DHT22;5939;56.522;14.950;2023-12-20T11:20:23;5.30;99.90
11764;DHT22;5939;56.522;14.950;2023-12-20T11:22:53;5.30;99.90
11764;DHT22;5939;56.522;14.950;2023-12-20T11:25:19;5.30;99.90
11764;DHT22;5939;56.522;14.950;2023-12-20T11:28:09;5.30;99.90
11764;DHT22;5939;56.522;14.950;2023-12-20T11:30:52;5.30;99.90
11764;DHT22;5939;56.522;14.950;2023-12-20T11:33:25;5.40;99.90
11764;DHT22;5939;56.522;14.950;2023-12-20T11:35:51;5.40;99.90
11764;DHT22;5939;56.522;14.950;2023-12-20T11:38:20;5.40;99.90
11764;DHT22;5939;56.522;14.950;2023-12-20T11:40:48;5.30;99.90
11764;DHT22;5939;56.522;14.950;2023-12-20T11:43:29;5.40;99.90
11764;DHT22;5939;56.522;14.950;2023-12-20T11:45:55;5.40;99.90
11764;DHT22;5939;56.522;14.950;2023-12-20T11:48:21;5.40;99.90
11764;DHT22;5939;56.522;14.950;2023-12-20T11:50:47;5.40;99.90
11764;DHT22;5939;56.522;14.950;2023-12-20T11:53:13;5.40;99.90
11764;DHT22;5939;56.522;14.950;2023-12-20T11:55:39;5.40;99.90
11764;DHT22;5939;56.522;14.950;2023-12-20T11:58:04;5.30;99.90
11764;DHT22;5939;56.522;14.950;2023-12-20T12:00:30;5.40;99.90
11764;DHT22;5939;56.522;14.950;2023-12-20T12:02:57;5.30;99.90
11764;DHT22;5939;56.522;14.950;2023-12-20T12:05:23;5.40;99.90
11764;DHT22;5939;56.522;14.950;2023-12-20T12:07:49;5.40;99.90
11764;DHT22;5939;56.522;14.950;2023-12-20T12:10:15;5.40;99.90
11764;DHT22;5939;56.522;14.950;2023-12-20T12:12:40;5.40;99.90
11764;DHT22;5939;56.522;14.950;2023-12-20T12:15:07;5.40;99.90
11764;DHT22;5939;56.522;14.950;2023-12-20T12:17:33;5.40;99.90
11764;DHT22;5939;56.522;14.950;2023-12-20T12:20:05;5.40;99.90
11764;DHT22;5939;56.522;14.950;2023-12-20T12:22:31;5.30;99.90
11764;DHT22;5939;56.522;14.950;2023-12-20T12:24:59;5.40;99.90
11764;DHT22;5939;56.522;14.950;2023-12-20T12:27:34;5.30;99.90
11764;DHT22;5939;56.522;14.950;2023-12-20T12:30:04;5.40;99.90
11764;DHT22;5939;56.522;14.950;2023-12-20T12:32:32;5.40;99.90
11764;DHT22;5939;56.522;14.950;2023-12-20T12:34:58;5.40;99.90
11764;DHT22;5939;56.522;14.950;2023-12-20T12:37:24;5.40;99.90
11764;DHT22;5939;56.522;14.950;2023-12-20T12:39:50;5.40;99.90
11764;DHT22;5939;56.522;14.950;2023-12-20T12:42:15;5.40;99.90
11764;DHT22;5939;56.522;14.950;2023-12-20T12:44:41;5.40;99.90
11764;DHT22;5939;56.522;14.950;2023-12-20T12:47:06;5.40;99.90
11764;DHT22;5939;56.522;14.950;2023-12-20T12:49:33;5.40;99.90
11764;DHT22;5939;56.522;14.950;2023-12-20T12:51:59;5.40;99.90
11764;DHT22;5939;56.522;14.950;2023-12-20T12:54:24;5.40;99.90
11764;DHT22;5939;56.522;14.950;2023-12-20T12:56:50;5.40;99.90
11764;DHT22;5939;56.522;14.950;2023-12-20T12:59:18;5.40;99.90
11764;DHT22;5939;56.522;14.950;2023-12-20T13:01:44;5.40;99.90
11764;DHT22;5939;56.522;14.950;2023-12-20T13:04:09;5.40;99.90
11764;DHT22;5939;56.522;14.950;2023-12-20T13:06:38;5.40;99.90
11764;DHT22;5939;56.522;14.950;2023-12-20T13:09:04;5.40;99.90
11764;DHT22;5939;56.522;14.950;2023-12-20T13:11:30;5.40;99.90
11764;DHT22;5939;56.522;14.950;2023-12-20T13:13:57;5.40;99.90
11764;DHT22;5939;56.522;14.950;2023-12-20T13:16:23;5.40;99.90
11764;DHT22;5939;56.522;14.950;2023-12-20T13:18:50;5.40;99.90
11764;DHT22;5939;56.522;14.950;2023-12-20T13:21:15;5.40;99.90
11764;DHT22;5939;56.522;14.950;2023-12-20T13:23:42;5.40;99.90
11764;DHT22;5939;56.522;14.950;2023-12-20T13:26:08;5.40;99.90
11764;DHT22;5939;56.522;14.950;2023-12-20T13:28:33;5.40;99.90
11764;DHT22;5939;56.522;14.950;2023-12-20T13:30:59;5.40;99.90
11764;DHT22;5939;56.522;14.950;2023-12-20T13:33:25;5.30;99.90
11764;DHT22;5939;56.522;14.950;2023-12-20T13:35:51;5.40;99.90
11764;DHT22;5939;56.522;14.950;2023-12-20T13:38:17;5.40;99.90
11764;DHT22;5939;56.522;14.950;2023-12-20T13:40:43;5.40;99.90
11764;DHT22;5939;56.522;14.950;2023-12-20T13:43:08;5.30;99.90
11764;DHT22;5939;56.522;14.950;2023-12-20T13:45:36;5.40;99.90
11764;DHT22;5939;56.522;14.950;2023-12-20T13:48:02;5.30;99.90
11764;DHT22;5939;56.522;14.950;2023-12-20T13:50:28;5.40;99.90
11764;DHT22;5939;56.522;14.950;2023-12-20T13:52:53;5.40;99.90
11764;DHT22;5939;56.522;14.950;2023-12-20T13:55:19;5.40;99.90
11764;DHT22;5939;56.522;14.950;2023-12-20T13:57:47;5.40;99.90
11764;DHT22;5939;56.522;14.950;2023-12-20T14:00:14;5.40;99.90
11764;DHT22;5939;56.522;14.950;2023-12-20T14:02:42;5.40;99.90
11764;DHT22;5939;56.522;14.950;2023-12-20T14:05:11;5.40;99.90
11764;DHT22;5939;56.522;14.950;2023-12-20T14:07:37;5.40;99.90
11764;DHT22;5939;56.522;14.950;2023-12-20T14:10:03;5.40;99.90
11764;DHT22;5939;56.522;14.950;2023-12-20T14:12:29;5.40;99.90
11764;DHT22;5939;56.522;14.950;2023-12-20T14:14:55;5.40;99.90
11764;DHT22;5939;56.522;14.950;2023-12-20T14:17:21;5.40;99.90
11764;DHT22;5939;56.522;14.950;2023-12-20T14:19:47;5.40;99.90
11764;DHT22;5939;56.522;14.950;2023-12-20T14:22:13;5.40;99.90
11764;DHT22;5939;56.522;14.950;2023-12-20T14:24:42;5.30;99.90
11764;DHT22;5939;56.522;14.950;2023-12-20T14:27:07;5.30;99.90
11764;DHT22;5939;56.522;14.950;2023-12-20T14:29:34;5.30;99.90
11764;DHT22;5939;56.522;14.950;2023-12-20T14:32:00;5.30;99.90
11764;DHT22;5939;56.522;14.950;2023-12-20T14:34:28;5.30;99.90
11764;DHT22;5939;56.522;14.950;2023-12-20T14:36:54;5.30;99.90
11764;DHT22;5939;56.522;14.950;2023-12-20T14:39:19;5.30;99.90
11764;DHT22;5939;56.522;14.950;2023-12-20T14:41:45;5.30;99.90
11764;DHT22;5939;56.522;14.950;2023-12-20T14:44:11;5.40;99.90
11764;DHT22;5939;56.522;14.950;2023-12-20T14:46:36;5.30;99.90
11764;DHT22;5939;56.522;14.950;2023-12-20T14:49:04;5.30;99.90
11764;DHT22;5939;56.522;14.950;2023-12-20T14:51:30;5.30;99.90
11764;DHT22;5939;56.522;14.950;2023-12-20T14:53:55;5.30;99.90
11764;DHT22;5939;56.522;14.950;2023-12-20T14:56:23;5.30;99.90
11764;DHT22;5939;56.522;14.950;2023-12-20T14:58:49;5.30;99.90
11764;DHT22;5939;56.522;14.950;2023-12-20T15:01:14;5.30;99.90
11764;DHT22;5939;56.522;14.950;2023-12-20T15:03:40;5.20;99.90
11764;DHT22;5939;56.522;14.950;2023-12-20T15:06:06;5.20;99.90
11764;DHT22;5939;56.522;14.950;2023-12-20T15:08:32;5.30;99.90
11764;DHT22;5939;56.522;14.950;2023-12-20T15:10:58;5.30;99.90
11764;DHT22;5939;56.522;14.950;2023-12-20T15:13:24;5.20;99.90
11764;DHT22;5939;56.522;14.950;2023-12-20T15:15:50;5.30;99.90
11764;DHT22;5939;56.522;14.950;2023-12-20T15:18:15;5.20;99.90
11764;DHT22;5939;56.522;14.950;2023-12-20T15:20:41;5.20;99.90
11764;DHT22;5939;56.522;14.950;2023-12-20T15:23:09;5.20;99.90
11764;DHT22;5939;56.522;14.950;2023-12-20T15:25:35;5.20;99.90
11764;DHT22;5939;56.522;14.950;2023-12-20T15:28:01;5.20;99.90
11764;DHT22;5939;56.522;14.950;2023-12-20T15:30:28;5.20;99.90
11764;DHT22;5939;56.522;14.950;2023-12-20T15:32:55;5.20;99.90
11764;DHT22;5939;56.522;14.950;2023-12-20T15:35:21;5.20;99.90
11764;DHT22;5939;56.522;14.950;2023-12-20T15:37:47;5.20;99.90
11764;DHT22;5939;56.522;14.950;2023-12-20T15:40:13;5.20;99.90